createdAt,value
2023-02-07T00:03:32.974Z,101438.56
2023-02-07T00:06:28.533Z,101421.00
2023-02-07T00:09:16.200Z,101444.53
2023-02-07T00:12:04.576Z,101427.91
2023-02-07T00:14:51.626Z,101443.50
2023-02-07T00:17:38.720Z,101439.88
2023-02-07T00:20:25.749Z,101451.19
2023-02-07T00:23:12.807Z,101462.47
2023-02-07T00:26:00.300Z,101457.94
2023-02-07T00:28:48.564Z,101470.16
2023-02-07T00:31:36.537Z,101478.03
2023-02-07T00:34:23.782Z,101478.84
2023-02-07T00:37:13.970Z,101469.31
2023-02-07T00:40:00.934Z,101466.66
2023-02-07T00:42:47.956Z,101470.81
2023-02-07T00:45:35.236Z,101469.84
2023-02-07T00:48:22.697Z,101476.72
2023-02-07T00:51:11.201Z,101493.16
2023-02-07T00:53:58.250Z,101484.31
2023-02-07T00:56:45.339Z,101507.81
2023-02-07T00:59:32.365Z,101492.75
2023-02-07T01:02:19.389Z,101502.44
2023-02-07T01:05:07.033Z,101511.25
2023-02-07T01:07:54.088Z,101506.84
2023-02-07T01:10:42.885Z,101515.66
2023-02-07T01:13:30.042Z,101503.56
2023-02-07T01:16:28.692Z,101501.03
2023-02-07T01:19:16.226Z,101483.00
2023-02-07T01:22:04.579Z,101473.81
2023-02-07T01:24:55.510Z,101490.50
2023-02-07T01:27:42.580Z,101489.66
2023-02-07T01:30:29.656Z,101488.84
2023-02-07T01:33:16.702Z,101481.84
2023-02-07T01:36:08.652Z,101460.06
2023-02-07T01:38:55.900Z,101463.72
2023-02-07T01:41:42.932Z,101427.91
2023-02-07T01:44:29.937Z,101457.75
2023-02-07T01:47:21.933Z,101442.03
2023-02-07T01:50:09.967Z,101448.19
2023-02-07T01:53:00.302Z,101449.13
2023-02-07T01:55:50.199Z,101409.03
2023-02-07T01:58:38.117Z,101392.50
2023-02-07T02:01:26.234Z,101438.81
2023-02-07T02:04:13.865Z,101429.34
2023-02-07T02:07:00.943Z,101397.91
2023-02-07T02:09:48.064Z,101408.41
2023-02-07T02:12:56.165Z,101403.19
2023-02-07T02:16:03.490Z,101419.78
2023-02-07T02:18:58.196Z,101404.06
2023-02-07T02:21:54.422Z,101410.16
2023-02-07T02:25:04.441Z,101411.91
2023-02-07T02:28:25.492Z,101425.00
2023-02-07T02:31:34.557Z,101434.63
2023-02-07T02:34:33.631Z,101438.13
2023-02-07T02:37:42.767Z,101424.13
2023-02-07T02:40:57.823Z,101420.63
2023-02-07T02:43:56.770Z,101416.28
2023-02-07T02:46:46.294Z,101428.50
2023-02-07T02:49:34.659Z,101419.78
2023-02-07T02:52:21.760Z,101403.16
2023-02-07T02:55:08.831Z,101406.66
2023-02-07T02:57:55.852Z,101419.75
2023-02-07T03:01:16.401Z,101417.16
2023-02-07T03:04:18.306Z,101412.78
2023-02-07T03:07:22.079Z,101403.16
2023-02-07T03:10:44.521Z,101377.81
2023-02-07T03:14:00.313Z,101394.41
2023-02-07T03:16:56.504Z,101392.63
2023-02-07T03:19:47.921Z,101399.59
2023-02-07T03:22:43.096Z,101398.69
2023-02-07T03:25:32.516Z,101386.44
2023-02-07T03:28:21.875Z,101361.97
2023-02-07T03:31:12.854Z,101347.06
2023-02-07T03:34:07.359Z,101359.28
2023-02-07T03:37:18.659Z,101372.38
2023-02-07T03:40:07.136Z,101359.16
2023-02-07T03:43:01.652Z,101373.97
2023-02-07T03:45:48.657Z,101373.00
2023-02-07T03:48:36.298Z,101369.47
2023-02-07T03:51:26.516Z,101368.50
2023-02-07T03:54:13.728Z,101383.28
2023-02-07T03:57:00.804Z,101380.56
2023-02-07T03:59:47.868Z,101369.13
2023-02-07T04:02:35.058Z,101373.34
2023-02-07T04:05:22.175Z,101373.38
2023-02-07T04:08:09.218Z,101373.28
2023-02-07T04:11:03.684Z,101402.91
2023-02-07T04:13:50.719Z,101376.69
2023-02-07T04:16:37.860Z,101388.75
2023-02-07T04:19:25.017Z,101383.53
2023-02-07T04:22:12.209Z,101373.91
2023-02-07T04:24:59.273Z,101379.13
2023-02-07T04:27:46.357Z,101379.97
2023-02-07T04:30:33.721Z,101371.19
2023-02-07T04:33:21.451Z,101385.97
2023-02-07T04:36:08.802Z,101376.22
2023-02-07T04:38:55.880Z,101411.22
2023-02-07T04:41:43.006Z,101402.41
2023-02-07T04:44:30.156Z,101397.19
2023-02-07T04:47:17.172Z,101392.63
2023-02-07T04:50:04.431Z,101407.50
2023-02-07T04:52:51.417Z,101420.50
2023-02-07T04:55:38.876Z,101420.41
2023-02-07T04:58:27.510Z,101416.81
2023-02-07T05:01:15.226Z,101418.47
2023-02-07T05:04:02.331Z,101432.34
2023-02-07T05:06:49.520Z,101436.56
2023-02-07T05:09:39.665Z,101444.38
2023-02-07T05:12:26.569Z,101451.44
2023-02-07T05:15:13.796Z,101428.56
2023-02-07T05:18:01.384Z,101455.56
2023-02-07T05:20:49.764Z,101446.78
2023-02-07T05:23:37.962Z,101437.03
2023-02-07T05:26:24.960Z,101428.16
2023-02-07T05:29:12.020Z,101451.00
2023-02-07T05:32:17.523Z,101414.16
2023-02-07T05:35:06.025Z,101449.13
2023-02-07T05:37:59.555Z,101447.38
2023-02-07T05:40:48.414Z,101446.41
2023-02-07T05:43:35.471Z,101455.16
2023-02-07T05:46:22.867Z,101462.91
2023-02-07T05:49:10.039Z,101470.75
2023-02-07T05:51:57.142Z,101469.03
2023-02-07T05:54:44.138Z,101474.19
2023-02-07T05:57:31.559Z,101478.47
2023-02-07T06:00:19.770Z,101499.22
2023-02-07T06:03:07.012Z,101498.41
2023-02-07T06:05:54.178Z,101472.78
2023-02-07T06:08:41.506Z,101493.84
2023-02-07T06:11:28.855Z,101474.41
2023-02-07T06:14:16.033Z,101463.09
2023-02-07T06:17:03.199Z,101486.72
2023-02-07T06:19:53.370Z,101503.16
2023-02-07T06:22:40.805Z,101498.81
2023-02-07T06:25:28.004Z,101506.59
2023-02-07T06:28:15.168Z,101510.00
2023-02-07T06:31:02.479Z,101512.75
2023-02-07T06:33:49.682Z,101494.47
2023-02-07T06:36:36.889Z,101489.19
2023-02-07T06:39:24.183Z,101499.69
2023-02-07T06:42:11.452Z,101492.75
2023-02-07T06:44:58.466Z,101474.31
2023-02-07T06:47:45.586Z,101511.78
2023-02-07T06:50:32.919Z,101502.09
2023-02-07T06:53:20.002Z,101511.84
2023-02-07T06:56:07.326Z,101508.38
2023-02-07T06:58:54.416Z,101507.78
2023-02-07T07:01:42.284Z,101502.69
2023-02-07T07:04:29.961Z,101498.47
2023-02-07T07:07:17.002Z,101503.72
2023-02-07T07:10:04.374Z,101489.81
2023-02-07T07:12:51.419Z,101493.28
2023-02-07T07:15:38.701Z,101508.16
2023-02-07T07:18:25.969Z,101515.13
2023-02-07T07:21:13.163Z,101496.78
2023-02-07T07:24:00.183Z,101516.94
2023-02-07T07:26:50.041Z,101508.19
2023-02-07T07:29:37.240Z,101506.66
2023-02-07T07:32:33.489Z,101504.94
2023-02-07T07:35:21.159Z,101511.09
2023-02-07T07:38:08.407Z,101484.94
2023-02-07T07:40:55.744Z,101514.69
2023-02-07T07:43:42.802Z,101500.78
2023-02-07T07:46:30.123Z,101510.50
2023-02-07T07:49:17.398Z,101505.31
2023-02-07T07:52:04.654Z,101501.88
2023-02-07T07:54:51.759Z,101511.59
2023-02-07T07:57:38.765Z,101491.59
2023-02-07T08:00:26.036Z,101492.53
2023-02-07T08:03:13.662Z,101488.34
2023-02-07T08:06:00.913Z,101488.44
2023-02-07T08:08:48.004Z,101481.47
2023-02-07T08:11:35.136Z,101478.78
2023-02-07T08:14:22.173Z,101481.50
2023-02-07T08:17:09.256Z,101489.50
2023-02-07T08:19:56.329Z,101488.75
2023-02-07T08:22:43.374Z,101454.75
2023-02-07T08:25:30.532Z,101480.16
2023-02-07T08:28:18.371Z,101469.69
2023-02-07T08:31:06.478Z,101483.69
2023-02-07T08:33:54.198Z,101478.53
2023-02-07T08:36:41.221Z,101483.00
2023-02-07T08:39:28.299Z,101471.56
2023-02-07T08:42:15.347Z,101463.09
2023-02-07T08:45:02.625Z,101469.22
2023-02-07T08:47:49.726Z,101473.72
2023-02-07T08:50:37.285Z,101464.06
2023-02-07T08:53:24.559Z,101466.84
2023-02-07T08:56:11.618Z,101467.88
2023-02-07T08:59:26.527Z,101480.94
2023-02-07T09:02:13.610Z,101473.97
2023-02-07T09:05:00.644Z,101479.41
2023-02-07T09:07:47.730Z,101473.41
2023-02-07T09:10:34.937Z,101469.94
2023-02-07T09:13:21.984Z,101469.03
2023-02-07T09:16:09.031Z,101457.84
2023-02-07T09:18:56.803Z,101460.69
2023-02-07T09:21:44.145Z,101463.47
2023-02-07T09:24:31.291Z,101472.22
2023-02-07T09:27:18.297Z,101457.31
2023-02-07T09:30:06.883Z,101449.38
2023-02-07T09:32:53.965Z,101447.47
2023-02-07T09:35:43.924Z,101444.59
2023-02-07T09:38:31.368Z,101456.69
2023-02-07T09:41:21.998Z,101453.94
2023-02-07T09:44:17.878Z,101454.47
2023-02-07T09:47:15.950Z,101456.97
2023-02-07T09:50:56.109Z,101459.56
2023-02-07T09:53:51.499Z,101454.94
2023-02-07T09:56:38.668Z,101452.09
2023-02-07T09:59:52.892Z,101456.19
2023-02-07T10:02:49.009Z,101460.25
2023-02-07T10:05:52.149Z,101453.97
2023-02-07T10:08:41.204Z,101435.50
2023-02-07T10:11:31.571Z,101447.69
2023-02-07T10:14:55.641Z,101431.50
2023-02-07T10:17:45.471Z,101431.81
2023-02-07T10:20:46.499Z,101396.84
2023-02-07T10:24:01.244Z,101414.81
2023-02-07T10:26:59.539Z,101408.38
2023-02-07T10:29:50.085Z,101404.97
2023-02-07T10:32:39.174Z,101393.63
2023-02-07T10:35:33.636Z,101388.97
2023-02-07T10:38:48.852Z,101387.91
2023-02-07T10:41:42.927Z,101394.00
2023-02-07T10:44:31.605Z,101386.75
2023-02-07T10:47:49.900Z,101401.47
2023-02-07T10:50:36.991Z,101389.41
2023-02-07T10:54:04.463Z,101388.06
2023-02-07T10:57:02.855Z,101389.72
2023-02-07T11:00:02.902Z,101402.78
2023-02-07T11:02:54.881Z,101374.81
2023-02-07T11:05:55.636Z,101378.59
2023-02-07T11:08:43.086Z,101371.78
2023-02-07T11:11:33.052Z,101374.31
2023-02-07T11:14:26.848Z,101362.97
2023-02-07T11:17:21.781Z,101380.22
2023-02-07T11:20:21.424Z,101374.00
2023-02-07T11:23:14.310Z,101375.22
2023-02-07T11:26:05.987Z,101366.56
2023-02-07T11:29:01.562Z,101371.09
2023-02-07T11:31:51.141Z,101354.63
2023-02-07T11:34:49.990Z,101374.66
2023-02-07T11:37:39.603Z,101362.53
2023-02-07T11:40:58.659Z,101355.50
2023-02-07T11:43:55.733Z,101353.75
2023-02-07T11:46:47.159Z,101321.09
2023-02-07T11:49:45.557Z,101346.03
2023-02-07T11:52:37.078Z,101348.81
2023-02-07T11:55:39.966Z,101333.13
2023-02-07T11:58:42.053Z,101345.31
2023-02-07T12:01:33.387Z,101345.25
2023-02-07T12:04:40.168Z,101326.63
2023-02-07T12:07:39.060Z,101321.63
2023-02-07T12:10:34.210Z,101312.31
2023-02-07T12:13:26.199Z,101317.50
2023-02-07T12:16:33.500Z,101313.03
2023-02-07T12:19:40.190Z,101311.97
2023-02-07T12:22:35.924Z,101274.25
2023-02-07T12:25:29.969Z,101297.72
2023-02-07T12:28:33.630Z,101282.88
2023-02-07T12:31:51.357Z,101305.13
2023-02-07T12:34:54.561Z,101293.75
2023-02-07T12:37:56.651Z,101299.06
2023-02-07T12:41:16.112Z,101292.88
2023-02-07T12:44:28.703Z,101277.31
2023-02-07T12:47:34.673Z,101278.69
2023-02-07T12:51:01.724Z,101270.81
2023-02-07T12:54:16.908Z,101267.34
2023-02-07T12:57:45.297Z,101266.41
2023-02-07T13:01:16.048Z,101275.84
2023-02-07T13:04:08.787Z,101279.16
2023-02-07T13:07:07.774Z,101278.34
2023-02-07T13:10:42.482Z,101268.75
2023-02-07T13:13:38.644Z,101278.19
2023-02-07T13:16:55.441Z,101279.19
2023-02-07T13:20:00.355Z,101273.78
2023-02-07T13:22:49.425Z,101277.00
2023-02-07T13:25:44.239Z,101276.31
2023-02-07T13:28:44.563Z,101280.75
2023-02-07T13:31:40.077Z,101285.94
2023-02-07T13:34:42.175Z,101279.50
2023-02-07T13:37:43.682Z,101275.19
2023-02-07T13:40:33.669Z,101284.38
2023-02-07T13:43:26.755Z,101284.03
2023-02-07T13:46:58.975Z,101275.50
2023-02-07T13:49:54.578Z,101275.47
2023-02-07T13:52:53.710Z,101276.56
2023-02-07T13:55:43.065Z,101277.50
2023-02-07T13:58:51.774Z,101276.59
2023-02-07T14:01:58.290Z,101251.28
2023-02-07T14:04:49.826Z,101273.03
2023-02-07T14:07:39.444Z,101251.50
2023-02-07T14:10:39.803Z,101280.00
2023-02-07T14:13:26.872Z,101270.91
2023-02-07T14:17:06.076Z,101252.28
2023-02-07T14:20:00.825Z,101268.19
2023-02-07T14:23:25.062Z,101255.19
2023-02-07T14:26:50.703Z,101266.31
2023-02-07T14:29:52.549Z,101259.19
2023-02-07T14:32:44.138Z,101251.09
2023-02-07T14:35:34.917Z,101253.88
2023-02-07T14:38:42.520Z,101253.53
2023-02-07T14:41:33.822Z,101251.28
2023-02-07T14:44:29.044Z,101239.13
2023-02-07T14:47:23.866Z,101251.50
2023-02-07T14:50:21.390Z,101240.56
2023-02-07T14:53:14.445Z,101241.41
2023-02-07T14:56:04.691Z,101239.81
2023-02-07T14:58:54.686Z,101247.91
2023-02-07T15:01:43.165Z,101228.69
2023-02-07T15:04:38.166Z,101220.28
2023-02-07T15:07:25.432Z,101236.09
2023-02-07T15:10:28.838Z,101241.56
2023-02-07T15:13:46.159Z,101250.44
2023-02-07T15:16:38.613Z,101251.06
2023-02-07T15:19:38.714Z,101247.69
2023-02-07T15:25:57.636Z,101171.63
2023-02-07T15:28:49.758Z,101161.44
2023-02-07T15:31:52.167Z,101257.38
2023-02-07T15:34:39.805Z,101218.16
2023-02-07T15:37:27.890Z,101233.09
2023-02-07T15:40:18.286Z,101249.66
2023-02-07T15:43:05.771Z,101228.72
2023-02-07T15:46:04.859Z,101244.41
2023-02-07T15:48:58.305Z,101229.34
2023-02-07T15:51:45.600Z,101224.94
2023-02-07T15:54:38.622Z,101270.78
2023-02-07T15:57:40.918Z,101264.97
2023-02-07T16:00:37.834Z,101277.31
2023-02-07T16:03:48.616Z,101242.56
2023-02-07T16:07:16.513Z,101214.16
2023-02-07T16:10:45.072Z,101293.47
2023-02-07T16:13:40.451Z,101201.47
2023-02-07T16:19:51.685Z,101260.16
2023-02-07T16:22:51.814Z,101274.25
2023-02-07T16:25:49.575Z,101268.06
2023-02-07T16:28:45.402Z,101275.09
2023-02-07T16:31:42.740Z,101234.22
2023-02-07T16:34:58.572Z,101306.81
2023-02-07T16:38:01.972Z,101242.56
2023-02-07T16:41:10.325Z,101299.09
2023-02-07T16:44:02.085Z,101342.84
2023-02-07T16:46:49.980Z,101337.56
2023-02-07T16:49:38.429Z,101302.75
2023-02-07T16:52:25.802Z,101337.84
2023-02-07T16:55:13.304Z,101323.81
2023-02-07T16:58:04.963Z,101343.06
2023-02-07T17:00:53.085Z,101339.75
2023-02-07T17:03:40.653Z,101333.72
2023-02-07T17:06:31.774Z,101326.81
2023-02-07T17:09:27.252Z,101349.41
2023-02-07T17:12:17.912Z,101332.13
2023-02-07T17:15:09.272Z,101354.00
2023-02-07T17:18:03.522Z,101342.69
2023-02-07T17:20:52.216Z,101360.16
2023-02-07T17:23:39.780Z,101360.22
2023-02-07T17:26:35.976Z,101359.38
2023-02-07T17:29:23.818Z,101365.41
2023-02-07T17:32:11.294Z,101360.22
2023-02-07T17:34:59.039Z,101346.28
2023-02-07T17:37:52.599Z,101364.63
2023-02-07T17:40:42.021Z,101367.31
2023-02-07T17:43:36.081Z,101362.06
2023-02-07T17:46:27.475Z,101354.22
2023-02-07T17:49:17.298Z,101354.25
2023-02-07T17:52:09.653Z,101357.75
2023-02-07T17:55:00.952Z,101356.00
2023-02-07T17:57:49.091Z,101338.50
2023-02-07T18:00:42.945Z,101344.63
2023-02-07T18:03:31.117Z,101353.38
2023-02-07T18:06:21.198Z,101355.13
2023-02-07T18:09:18.074Z,101343.78
2023-02-07T18:12:07.432Z,101351.66
2023-02-07T18:14:56.621Z,101345.53
2023-02-07T18:17:48.183Z,101356.00
2023-02-07T18:20:36.531Z,101369.09
2023-02-07T18:23:24.571Z,101353.38
2023-02-07T18:26:15.633Z,101360.38
2023-02-07T18:29:04.138Z,101379.59
2023-02-07T18:31:52.201Z,101356.81
2023-02-07T18:34:40.522Z,101379.53
2023-02-07T18:37:28.973Z,101362.94
2023-02-07T18:40:17.230Z,101376.00
2023-02-07T18:43:05.872Z,101392.59
2023-02-07T18:45:53.915Z,101390.84
2023-02-07T18:48:41.723Z,101389.94
2023-02-07T18:51:30.325Z,101383.81
2023-02-07T18:54:18.234Z,101381.16
2023-02-07T18:57:12.202Z,101394.28
2023-02-07T19:00:00.400Z,101382.88
2023-02-07T19:02:49.574Z,101392.47
2023-02-07T19:05:38.541Z,101381.97
2023-02-07T19:08:28.361Z,101400.31
2023-02-07T19:11:17.144Z,101413.38
2023-02-07T19:14:10.321Z,101412.50
2023-02-07T19:16:59.588Z,101415.13
2023-02-07T19:19:48.112Z,101396.75
2023-02-07T19:22:37.800Z,101409.84
2023-02-07T19:25:25.736Z,101414.09
2023-02-07T19:28:13.723Z,101416.78
2023-02-07T19:31:09.634Z,101418.47
2023-02-07T19:33:58.924Z,101408.00
2023-02-07T19:36:47.231Z,101410.63
2023-02-07T19:39:35.033Z,101419.31
2023-02-07T19:42:24.687Z,101403.59
2023-02-07T19:45:13.396Z,101407.94
2023-02-07T19:48:01.402Z,101413.97
2023-02-07T19:50:57.329Z,101418.28
2023-02-07T19:53:47.030Z,101427.03
2023-02-07T19:56:37.279Z,101400.03
2023-02-07T19:59:25.366Z,101429.66
2023-02-07T20:02:15.556Z,101413.81
2023-02-07T20:05:13.161Z,101436.47
2023-02-07T20:08:01.038Z,101434.72
2023-02-07T20:10:49.702Z,101436.50
2023-02-07T20:13:43.966Z,101431.22
2023-02-07T20:16:35.482Z,101426.03
2023-02-07T20:19:24.205Z,101431.13
2023-02-07T20:22:12.385Z,101424.06
2023-02-07T20:25:00.384Z,101448.47
2023-02-07T20:27:48.259Z,101444.03
2023-02-07T20:30:36.988Z,101456.25
2023-02-07T20:33:25.187Z,101445.75
2023-02-07T20:36:16.058Z,101440.56
2023-02-07T20:39:03.470Z,101431.00
2023-02-07T20:41:52.299Z,101450.34
2023-02-07T20:44:40.285Z,101440.69
2023-02-07T20:47:32.817Z,101455.56
2023-02-07T20:50:21.948Z,101459.06
2023-02-07T20:53:09.513Z,101462.59
2023-02-07T20:56:11.215Z,101470.47
2023-02-07T20:58:58.719Z,101461.78
2023-02-07T21:01:47.654Z,101462.66
2023-02-07T21:04:37.128Z,101456.47
2023-02-07T21:07:24.879Z,101459.97
2023-02-07T21:10:12.286Z,101453.81
2023-02-07T21:12:59.725Z,101458.13
2023-02-07T21:16:01.405Z,101450.22
2023-02-07T21:18:50.781Z,101464.22
2023-02-07T21:21:40.030Z,101467.59
2023-02-07T21:24:27.318Z,101471.03
2023-02-07T21:27:14.834Z,101473.63
2023-02-07T21:30:02.461Z,101471.00
2023-02-07T21:32:49.705Z,101453.50
2023-02-07T21:35:37.020Z,101466.66
2023-02-07T21:38:24.129Z,101457.06
2023-02-07T21:41:13.342Z,101467.56
2023-02-07T21:44:01.258Z,101472.69
2023-02-07T21:46:51.036Z,101466.56
2023-02-07T21:49:38.379Z,101454.19
2023-02-07T21:52:25.440Z,101476.91
2023-02-07T21:55:12.551Z,101482.09
2023-02-07T21:57:59.558Z,101482.09
2023-02-07T22:00:46.769Z,101478.53
2023-02-07T22:03:34.026Z,101468.94
2023-02-07T22:06:22.112Z,101482.03
2023-02-07T22:09:12.463Z,101475.88
2023-02-07T22:11:59.563Z,101460.06
2023-02-07T22:14:46.624Z,101474.97
2023-02-07T22:17:33.728Z,101477.50
2023-02-07T22:20:20.763Z,101481.88
2023-02-07T22:23:07.861Z,101476.66
2023-02-07T22:25:54.891Z,101482.78
2023-02-07T22:28:42.268Z,101484.50
2023-02-07T22:31:31.498Z,101494.03
2023-02-07T22:34:19.173Z,101488.72
2023-02-07T22:37:06.233Z,101493.97
2023-02-07T22:39:53.318Z,101487.91
2023-02-07T22:42:40.373Z,101489.63
2023-02-07T22:45:27.687Z,101505.38
2023-02-07T22:48:16.186Z,101498.38
2023-02-07T22:51:23.634Z,101496.56
2023-02-07T22:54:16.381Z,101495.72
2023-02-07T22:57:03.514Z,101506.13
2023-02-07T22:59:50.545Z,101501.69
2023-02-07T23:02:37.718Z,101484.22
2023-02-07T23:05:24.739Z,101489.41
2023-02-07T23:08:13.328Z,101499.91
2023-02-07T23:11:00.345Z,101483.25
2023-02-07T23:13:47.641Z,101502.41
2023-02-07T23:16:35.814Z,101498.81
2023-02-07T23:19:22.924Z,101481.22
2023-02-07T23:22:09.957Z,101504.19
2023-02-07T23:24:57.058Z,101504.13
2023-02-07T23:27:45.077Z,101507.53
2023-02-07T23:30:32.279Z,101505.69
2023-02-07T23:33:19.306Z,101527.47
2023-02-07T23:36:07.605Z,101488.94
2023-02-07T23:38:54.678Z,101521.28
2023-02-07T23:41:41.762Z,101530.03
2023-02-07T23:44:28.778Z,101520.34
2023-02-07T23:47:17.325Z,101512.47
2023-02-07T23:50:04.532Z,101511.47
2023-02-07T23:52:51.788Z,101509.75
2023-02-07T23:55:44.647Z,101496.66
2023-02-07T23:58:32.716Z,101531.66
